createdAt,value
2018-06-16T00:01:24.324Z,4.30
2018-06-16T00:03:56.925Z,4.27
2018-06-16T00:06:31.969Z,4.57
2018-06-16T00:09:04.269Z,4.83
2018-06-16T00:11:36.603Z,4.60
2018-06-16T00:14:10.319Z,4.50
2018-06-16T00:16:43.350Z,4.10
2018-06-16T00:24:27.768Z,3.90
2018-06-16T00:27:00.537Z,4.23
2018-06-16T00:32:07.074Z,4.50
2018-06-16T00:37:18.056Z,4.43
2018-06-16T00:39:51.880Z,4.03
2018-06-16T00:42:25.041Z,4.07
2018-06-16T00:47:36.036Z,4.73
2018-06-16T00:50:10.013Z,4.30
2018-06-16T00:52:44.674Z,4.33
2018-06-16T00:57:55.973Z,5.10
2018-06-16T01:00:29.044Z,4.50
2018-06-16T01:03:02.807Z,5.37
2018-06-16T01:05:36.477Z,4.77
2018-06-16T01:08:10.141Z,4.73
2018-06-16T01:13:21.538Z,6.00
2018-06-16T01:15:54.805Z,5.37
2018-06-16T01:18:28.224Z,5.43
2018-06-16T01:21:03.092Z,5.30
2018-06-16T01:23:37.077Z,5.23
2018-06-16T01:26:09.773Z,5.37
2018-06-16T01:28:45.616Z,5.67
2018-06-16T01:31:19.640Z,5.70
2018-06-16T01:33:53.873Z,5.30
2018-06-16T01:39:17.617Z,5.40
2018-06-16T01:44:33.706Z,5.40
2018-06-16T01:47:07.473Z,5.50
2018-06-16T01:49:41.237Z,5.40
2018-06-16T01:52:15.969Z,6.13
2018-06-16T01:54:49.313Z,5.57
2018-06-16T01:57:22.719Z,4.93
2018-06-16T01:59:55.950Z,5.43
2018-06-16T02:02:30.478Z,6.23
2018-06-16T02:05:04.303Z,5.73
2018-06-16T02:07:38.111Z,5.40
2018-06-16T02:10:09.794Z,5.23
2018-06-16T02:15:18.102Z,5.37
2018-06-16T02:17:51.855Z,5.27
2018-06-16T02:22:57.145Z,5.70
2018-06-16T02:25:31.945Z,5.47
2018-06-16T02:28:05.954Z,5.13
2018-06-16T02:30:39.879Z,5.30
2018-06-16T02:35:46.815Z,5.40
2018-06-16T02:41:07.704Z,5.67
2018-06-16T02:43:48.282Z,4.77
2018-06-16T02:49:11.977Z,5.23
2018-06-16T03:02:41.148Z,5.10
2018-06-16T03:05:17.619Z,5.00
2018-06-16T03:07:57.109Z,4.97
2018-06-16T03:10:35.750Z,4.93
2018-06-16T03:13:21.668Z,5.03
2018-06-16T03:21:32.287Z,5.20
2018-06-16T03:26:49.996Z,4.90
2018-06-16T03:34:49.978Z,4.23
2018-06-16T03:37:27.948Z,4.60
2018-06-16T03:45:28.464Z,4.70
2018-06-16T03:48:05.323Z,4.73
2018-06-16T03:55:58.393Z,5.20
2018-06-16T03:58:45.665Z,4.67
2018-06-16T04:01:28.810Z,4.77
2018-06-16T04:04:04.816Z,4.97
2018-06-16T04:09:20.044Z,5.53
2018-06-16T04:12:00.789Z,5.33
2018-06-16T04:14:39.343Z,5.50
2018-06-16T04:17:19.774Z,6.17
2018-06-16T04:20:00.155Z,6.57
2018-06-16T04:22:43.222Z,6.23
2018-06-16T04:25:22.317Z,5.93
2018-06-16T04:28:06.341Z,6.60
2018-06-16T04:30:49.073Z,6.27
2018-06-16T04:49:22.901Z,6.90
2018-06-16T04:54:54.285Z,7.03
2018-06-16T04:57:32.709Z,7.00
2018-06-16T05:00:10.460Z,6.97
2018-06-16T05:02:49.210Z,7.00
2018-06-16T05:05:25.220Z,6.80
2018-06-16T05:07:59.231Z,6.83
2018-06-16T05:10:40.792Z,6.70
2018-06-16T05:24:13.981Z,7.47
2018-06-16T05:26:52.679Z,7.83
2018-06-16T05:29:28.688Z,7.97
2018-06-16T05:40:01.940Z,8.10
2018-06-16T05:42:44.310Z,8.60
2018-06-16T05:50:52.694Z,7.93
2018-06-16T05:53:37.589Z,8.33
2018-06-16T06:06:53.919Z,8.13
2018-06-16T06:15:00.364Z,8.53
2018-06-16T06:24:38.363Z,7.70
2018-06-16T06:32:41.339Z,7.80
2018-06-16T06:38:03.593Z,7.40
2018-06-16T06:40:42.271Z,7.60
2018-06-16T06:43:21.827Z,7.17
2018-06-16T06:46:04.451Z,7.30
2018-06-16T06:54:19.983Z,5.67
2018-06-16T07:02:30.117Z,6.40
2018-06-16T07:07:56.015Z,5.57
2018-06-16T07:16:11.209Z,5.07
2018-06-16T07:18:58.353Z,5.37
2018-06-16T07:26:50.160Z,4.50
2018-06-16T07:29:27.397Z,5.30
2018-06-16T07:32:11.899Z,3.93
2018-06-16T07:40:19.906Z,4.00
2018-06-16T07:43:04.475Z,4.13
2018-06-16T07:51:16.475Z,3.83
2018-06-16T07:54:03.267Z,3.77
2018-06-16T07:56:49.558Z,3.50
2018-06-16T07:59:32.466Z,3.77
2018-06-16T08:02:16.249Z,4.00
2018-06-16T08:23:52.259Z,3.40
2018-06-16T08:26:32.590Z,3.60
2018-06-16T08:29:21.767Z,3.70
2018-06-16T08:32:02.933Z,3.70
2018-06-16T08:34:51.743Z,3.60
2018-06-16T08:37:38.664Z,4.10
2018-06-16T08:43:10.918Z,3.87
2018-06-16T08:48:46.157Z,4.00
2018-06-16T08:51:36.114Z,4.53
2018-06-16T08:59:48.438Z,4.30
2018-06-16T09:02:35.640Z,4.53
2018-06-16T09:08:11.259Z,4.30
2018-06-16T09:13:45.040Z,4.50
2018-06-16T09:16:33.542Z,4.40
2018-06-16T09:19:21.564Z,4.47
2018-06-16T09:22:13.864Z,4.60
2018-06-16T09:25:06.882Z,3.97
2018-06-16T09:27:56.043Z,4.50
2018-06-16T09:36:11.412Z,4.10
2018-06-16T09:38:57.148Z,4.30
2018-06-16T09:41:30.842Z,4.20
2018-06-16T09:44:04.207Z,4.03
2018-06-16T09:46:37.798Z,3.43
2018-06-16T09:49:11.611Z,3.33
2018-06-16T09:51:46.382Z,3.57
2018-06-16T09:54:39.608Z,3.30
2018-06-16T10:03:40.839Z,3.30
2018-06-16T10:06:46.873Z,3.60
2018-06-16T10:12:36.221Z,3.13
2018-06-16T10:15:27.832Z,3.20
2018-06-16T10:18:23.409Z,3.30
2018-06-16T10:21:21.259Z,3.20
2018-06-16T10:27:10.720Z,3.63
2018-06-16T10:30:02.812Z,3.40
2018-06-16T10:38:38.638Z,3.47
2018-06-16T10:50:04.106Z,3.07
2018-06-16T10:58:58.243Z,3.20
2018-06-16T11:04:59.550Z,3.00
2018-06-16T11:08:01.440Z,3.20
2018-06-16T11:27:06.485Z,4.20
2018-06-16T11:39:00.530Z,3.30
2018-06-16T13:20:39.403Z,2.55
2018-06-16T13:23:26.364Z,2.50
2018-06-16T13:26:08.336Z,2.33
2018-06-16T16:25:34.143Z,2.77
2018-06-16T16:28:47.466Z,3.20
2018-06-16T16:40:49.338Z,4.17
2018-06-16T16:43:43.077Z,4.20
2018-06-16T16:49:24.975Z,3.70
2018-06-16T16:52:12.140Z,5.37
2018-06-16T16:57:53.884Z,5.13
2018-06-16T17:00:42.821Z,4.67
2018-06-16T17:06:09.374Z,5.23
2018-06-16T17:14:04.508Z,4.60
2018-06-16T17:16:38.328Z,4.30
2018-06-16T17:21:51.565Z,4.67
2018-06-16T17:27:02.576Z,3.97
2018-06-16T17:29:50.746Z,3.60
2018-06-16T17:35:13.777Z,3.33
2018-06-16T17:43:25.425Z,4.53
2018-06-16T17:45:59.722Z,4.30
2018-06-16T17:48:32.688Z,4.40
2018-06-16T17:51:04.121Z,4.27
2018-06-16T17:53:36.782Z,4.47
2018-06-16T17:56:11.321Z,5.20
2018-06-16T17:58:56.646Z,4.00
2018-06-16T18:01:29.911Z,4.30
2018-06-16T18:04:03.501Z,4.33
2018-06-16T18:06:36.293Z,4.73
2018-06-16T18:09:12.218Z,3.90
2018-06-16T18:11:44.929Z,4.00
2018-06-16T18:14:25.127Z,4.50
2018-06-16T18:16:58.298Z,4.40
2018-06-16T18:19:31.474Z,4.20
2018-06-16T18:22:03.923Z,4.30
2018-06-16T18:24:35.948Z,4.97
2018-06-16T18:27:09.067Z,4.63
2018-06-16T18:29:42.019Z,4.90
2018-06-16T18:32:13.594Z,5.17
2018-06-16T18:34:47.037Z,5.23
2018-06-16T18:37:18.608Z,4.50
2018-06-16T18:39:49.176Z,5.20
2018-06-16T18:42:22.987Z,6.40
2018-06-16T18:44:53.614Z,7.63
2018-06-16T18:47:24.725Z,6.50
2018-06-16T18:49:57.110Z,7.23
2018-06-16T18:52:35.084Z,7.40
2018-06-16T18:55:07.985Z,9.03
2018-06-16T18:57:39.028Z,9.20
2018-06-16T19:00:11.945Z,9.23
2018-06-16T19:02:42.860Z,10.50
2018-06-16T19:05:18.618Z,8.43
2018-06-16T19:07:49.995Z,9.40
2018-06-16T19:10:22.696Z,9.73
2018-06-16T19:12:55.258Z,9.83
2018-06-16T19:15:28.153Z,9.97
2018-06-16T19:18:00.532Z,10.43
2018-06-16T19:20:32.509Z,11.10
2018-06-16T19:23:06.805Z,11.00
2018-06-16T19:25:39.107Z,11.30
2018-06-16T19:28:13.025Z,11.00
2018-06-16T19:30:45.520Z,10.07
2018-06-16T19:33:18.061Z,9.97
2018-06-16T19:35:50.937Z,10.13
2018-06-16T19:38:27.642Z,9.33
2018-06-16T19:41:01.025Z,9.57
2018-06-16T19:43:32.528Z,9.60
2018-06-16T19:46:05.438Z,9.30
2018-06-16T19:48:40.158Z,10.47
2018-06-16T19:51:14.056Z,9.60
2018-06-16T19:53:47.954Z,10.20
2018-06-16T19:56:26.076Z,10.43
2018-06-16T19:59:00.676Z,9.70
2018-06-16T20:01:34.697Z,9.67
2018-06-16T20:04:08.278Z,10.20
2018-06-16T20:06:46.512Z,9.37
2018-06-16T20:09:19.167Z,10.20
2018-06-16T20:11:52.605Z,9.73
2018-06-16T20:14:24.291Z,9.07
2018-06-16T20:16:57.640Z,9.77
2018-06-16T20:19:30.863Z,10.00
2018-06-16T20:22:01.148Z,9.93
2018-06-16T20:24:32.282Z,9.50
2018-06-16T20:27:03.461Z,10.40
2018-06-16T20:29:40.716Z,10.10
2018-06-16T20:32:13.439Z,9.33
2018-06-16T20:34:46.494Z,8.87
2018-06-16T20:37:19.569Z,8.50
2018-06-16T20:39:51.684Z,8.17
2018-06-16T20:42:22.150Z,8.97
2018-06-16T20:44:54.039Z,9.13
2018-06-16T20:47:25.961Z,8.50
2018-06-16T20:49:58.802Z,8.57
2018-06-16T20:52:34.000Z,9.23
2018-06-16T20:55:05.652Z,8.83
2018-06-16T20:57:38.030Z,8.50
2018-06-16T21:00:10.977Z,8.63
2018-06-16T21:02:43.130Z,8.37
2018-06-16T21:05:15.947Z,7.60
2018-06-16T21:07:48.447Z,8.97
2018-06-16T21:10:21.938Z,8.27
2018-06-16T21:12:53.274Z,8.20
2018-06-16T21:15:24.904Z,7.57
2018-06-16T21:17:56.174Z,7.67
2018-06-16T21:20:29.503Z,7.40
2018-06-16T21:23:00.179Z,8.00
2018-06-16T21:25:30.028Z,7.33
2018-06-16T21:28:00.278Z,6.80
2018-06-16T21:30:33.034Z,7.67
2018-06-16T21:33:04.863Z,6.63
2018-06-16T21:35:35.784Z,6.80
2018-06-16T21:38:07.453Z,6.10
2018-06-16T21:40:40.023Z,5.90
2018-06-16T21:43:20.425Z,5.90
2018-06-16T21:45:52.062Z,5.53
2018-06-16T21:48:24.229Z,5.27
2018-06-16T21:50:56.560Z,5.33
2018-06-16T21:53:29.214Z,5.43
2018-06-16T21:56:00.386Z,5.20
2018-06-16T21:58:29.970Z,5.50
2018-06-16T22:01:02.117Z,5.13
2018-06-16T22:03:38.491Z,5.07
2018-06-16T22:06:15.757Z,5.03
2018-06-16T22:08:47.942Z,5.03
2018-06-16T22:11:20.727Z,4.77
2018-06-16T22:13:52.300Z,4.83
2018-06-16T22:16:24.818Z,4.87
2018-06-16T22:18:57.083Z,5.57
2018-06-16T22:21:29.776Z,5.10
2018-06-16T22:24:00.757Z,5.20
2018-06-16T22:26:32.765Z,5.73
2018-06-16T22:29:04.123Z,5.43
2018-06-16T22:31:38.805Z,5.77
2018-06-16T22:34:14.296Z,5.83
2018-06-16T22:36:47.203Z,5.43
2018-06-16T22:39:18.504Z,5.90
2018-06-16T22:41:50.970Z,5.43
2018-06-16T22:44:22.033Z,5.27
2018-06-16T22:46:54.238Z,6.70
2018-06-16T22:49:26.465Z,6.10
2018-06-16T22:51:59.481Z,6.57
2018-06-16T22:54:30.098Z,6.40
2018-06-16T22:57:01.782Z,6.70
2018-06-16T22:59:37.664Z,6.20
2018-06-16T23:02:11.384Z,6.47
2018-06-16T23:04:43.143Z,7.17
2018-06-16T23:07:15.806Z,7.37
2018-06-16T23:09:48.422Z,6.80
2018-06-16T23:12:19.587Z,7.00
2018-06-16T23:14:50.306Z,7.23
2018-06-16T23:17:20.960Z,6.87
2018-06-16T23:19:52.816Z,6.73
2018-06-16T23:22:27.054Z,6.27
2018-06-16T23:24:58.379Z,6.80
2018-06-16T23:27:31.744Z,6.53
2018-06-16T23:30:04.137Z,6.37
2018-06-16T23:32:36.354Z,6.10
2018-06-16T23:35:09.423Z,6.20
2018-06-16T23:37:40.281Z,6.60
2018-06-16T23:40:11.383Z,6.70
2018-06-16T23:42:42.387Z,6.17
2018-06-16T23:45:13.106Z,6.17
2018-06-16T23:47:45.059Z,6.80
2018-06-16T23:50:16.366Z,6.70
2018-06-16T23:52:47.291Z,6.87
2018-06-16T23:55:18.044Z,6.03
2018-06-16T23:57:50.083Z,5.90
